Tybee Island, GA (31328)

8:15 AM EDT on July 27, 2016 (GMT -0400)
Tid-Bit | | Change Station

Elev 10 ft 32.01 °N, 80.85 °W | Updated 2 minutes ago

Clear
Clear
81.8 °F
Feels Like 89 °F
N
2.0
Wind Variable Wind from WSW
Gusts 6.0 mph

Today
High -- | Low -- °F
--% Chance of Precip.
Yesterday
High -- | Low -- °F
Precip. -- in
Pressure 30.07 in
Visibility 10.0 miles
Clouds Clear
Heat Index 89 °F
Dew Point 76 °F
Humidity 83%
Rainfall 0.00 in
Snow Depth Not available.
6:35 AM 8:23 PM
Last Quarter, 44% visible
METAR KHXD 271150Z 21005KT 10SM SKC 27/23 A3007
Pressure 30.07 in
Visibility 10.0 miles
Clouds Clear
Heat Index 89 °F
Dew Point 76 °F
Humidity 83%
Rainfall 0.00 in
Snow Depth Not available.
6:35 AM 8:23 PM
Last Quarter, 44% visible
METAR KHXD 271150Z 21005KT 10SM SKC 27/23 A3007

10-Day Weather Forecast

Almanac

Astronomy

Jul. 27, 2016 Rise Set
Actual Time
Civil Twilight
Nautical Twilight
Astronomical Twilight
Moon
Length of Visible Light
Length of Day
Tomorrow will be .
, % of the Moon is Illuminated

Today's Extremes

State Highs State Lows

Community

WunderPhotos

Upload Photos

1,927,836 photos uploaded!

WunderBlog® & News

Nearby

Air Quality

  Air Quality AQ Index Pollutant
Not available.

Snow Depth

Station Depth Elevation

Earthquake Activity

City Distance Mag. Time & Date
Minimum magnitude displayed is 2.5.

Coastal Water Temperatures

Place Temperature

Stations

Nearby Weather Stations

Station Location Temp. Windchill Dew Point Humidity Wind Precip. Elev Updated Type
                   

Watches & Warnings

There are currently no watches in effect.